Nearby METAR Reports

 

EDNY - Friedrichshafen, Germany
Distance from station: O 31km
aktuell: 02.07.2016 06:50
stark bewölkt
stark bewölkt
 Wind von WSW
Wind: WSW 7 km/h
Temperatur: 18°C
Taupunkt: 17°C
Luftfeuchte: 94%
Luftdruck: 1016 hPa
Clouds: stark bewölkt
Visibility: 10 km
Cloud details: Few Clouds 518 m
stark bewölkt 2987 m
2016/07/02 04:50 EDNY 020450Z 24004KT 9999 FEW017 BKN098 18/17 Q1016
LSZR - Rheineck/Altenrh, Switzerland
Distance from station: SO 42km
aktuell: 02.07.2016 07:20
stark bewölkt
stark bewölkt
 Wind von W
Wind: W 20 km/h
Temperatur: 20°C
Taupunkt: 16°C
Luftfeuchte: 78%
Luftdruck: 1016 hPa
Clouds: stark bewölkt
Visibility: 10 km
Cloud details: stark bewölkt 2438 m
2016/07/02 05:20 LSZR 020520Z 28011KT 9999 BKN080 20/16 Q1016 NOSIG RMK A
LSZH - Zurich-Kloten (a, Switzerland
Distance from station: WSW 49km
aktuell: 02.07.2016 07:20
stark bewölkt
stark bewölkt
 Wind von SW
Wind: SW 6 km/h
Temperatur: 17°C
Taupunkt: 16°C
Luftfeuchte: 94%
Luftdruck: 1017 hPa
Clouds: stark bewölkt
Visibility: 10 km
Cloud details: Few Clouds 457 m
teilweise bewölkt 1128 m
stark bewölkt 2743 m
2016/07/02 05:20 LSZH 020520Z 23003KT 9999 FEW015 SCT037 BKN090 17/16 Q1017 TEMPO SHRA
 
EDTD - Donaueschingen, Germany
Distance from station: NW 53km
aktuell: 30.04.2014 18:20
NOT Current
sehr leichter Niederschlag, geschlossene Wolkendecke
sehr leichter Niederschlag, geschlossene Wolkendecke
 Wind von SSW
Wind: SSW 9 km/h
Temperatur: 10°C
gefühlte Temperatur: 9°C
Taupunkt: 10°C
Luftfeuchte: 100%
Luftdruck: 1011 hPa
Zusammenfassung: sehr leichter Niederschlag
Clouds: geschlossene Wolkendecke
Visibility: 9 km
Cloud details: stark bewölkt 213 m
geschlossene Wolkendecke 335 m
2014/04/30 16:20 EDTD 301620Z 20005KT 9000 -RA BKN007 OVC011 10/10 Q1011 LAST ?
ETGZ - Messstetten, Germany
Distance from station: N 54km
aktuell: 30.09.2013 14:20
NOT Current
geschlossene Wolkendecke
geschlossene Wolkendecke
 Wind von varies
Wind: varies 4 km/h
Temperatur: 8°C
Taupunkt: 7°C
Luftfeuchte: 93%
Luftdruck: 1007 hPa
Clouds: geschlossene Wolkendecke
Visibility: 10 km
Cloud details: geschlossene Wolkendecke 213 m
2013/09/30 12:20 ETGZ 301220Z VRB02KT 9999 OVC007 08/07 Q1007 GRN
LOIH - Hohenems-Dornbir, Austria
Distance from station: SO 57km
aktuell: 01.07.2016 15:00
NOT Current
teilweise bewölkt
teilweise bewölkt
 Wind von N
Wind: N 7 km/h
Temperatur: 26°C
Taupunkt: 18°C
Luftfeuchte: 61%
Luftdruck: 1017 hPa
Clouds: teilweise bewölkt
Cloud details: teilweise bewölkt 762 m
2016/07/01 13:00 LOIH 011300Z 35004KT 30KM SCT025CU 26/18 Q1017 RMK SCT
 
ETHL - Laupheim (ger-Ar, Germany
Distance from station: NO 84km
aktuell: 02.07.2016 07:20
sehr leichter Niederschlag, Showers, stark bewölkt
sehr leichter Niederschlag, Showers, stark bewölkt
 Wind von S
Wind: S 7 km/h
Temperatur: 17°C
Taupunkt: 15°C
Luftfeuchte: 88%
Luftdruck: 1016 hPa
Zusammenfassung: sehr leichter Niederschlag, Showers
Clouds: stark bewölkt
Visibility: 10 km
Cloud details: Few Clouds 914 m
stark bewölkt 1219 m
2016/07/02 05:20 ETHL 020520Z 19004KT 9999 -SHRA FEW030 BKN040 17/15 Q1016 RETS BLU
EDJA - Memmingen Allgau, Germany
Distance from station: ONO 90km
aktuell: 02.07.2016 07:20
klar
klar
 Wind von SW
Wind: SW 13 km/h
Temperatur: 18°C
Taupunkt: 15°C
Luftfeuchte: 83%
Luftdruck: 1017 hPa
Zusammenfassung: klar
Visibility: greater than 10 km
2016/07/02 05:20 EDJA 020520Z 22007KT CAVOK 18/15 Q1017
LSME - Emmen, Switzerland
Distance from station: SW 90km
aktuell: 02.07.2016 06:50
sehr leichter Niederschlag, Showers, stark bewölkt
sehr leichter Niederschlag, Showers, stark bewölkt
 Wind von varies
Wind: varies 2 km/h
Temperatur: 19°C
Taupunkt: 17°C
Luftfeuchte: 88%
Luftdruck: 1017 hPa
Zusammenfassung: sehr leichter Niederschlag, Showers
Clouds: stark bewölkt
Visibility: 16 miles
Cloud details: teilweise bewölkt 1006 m
stark bewölkt 2469 m
stark bewölkt 3018 m
2016/07/02 04:50 LSME 020450Z AUTO VRB01KT 9999NDV -SHRA SCT033 BKN081 BKN099 19/17 Q1017 RMK
 
LSZC - Buochs, Switzerland
Distance from station: SSW 98km
aktuell: 02.07.2016 07:20
geschlossene Wolkendecke
geschlossene Wolkendecke
 Wind von varies
Wind: varies 7 km/h
Temperatur: 19°C
Taupunkt: 16°C
Luftfeuchte: 83%
Luftdruck: 1018 hPa
Clouds: geschlossene Wolkendecke
Visibility: 10 km
Cloud details: Few Clouds 914 m
geschlossene Wolkendecke 2743 m
2016/07/02 05:20 LSZC 020520Z AUTO VRB04KT 9999 FEW030 OVC090 19/16 Q1018